Time;durP1;ratioP1;P1;durP2;ratioP2;P2;SDS_P1;SDS_P2;PMS_P1;PMS_P2;Temp;Humidity;BMP_temperature;BMP_pressure;BME280_temperature;BME280_humidity;BME280_pressure;Samples;Min_cycle;Max_cycle;Signal;HPM_P1;HPM_P2
2021/07/06 00:00:41;;;;;;;1.67;0.98;;;16.40;99.90;;;;;;4870931;29;20051;-80
2021/07/06 00:03:10;;;;;;;2.20;0.90;;;16.40;99.90;;;;;;4842246;29;20057;-80
2021/07/06 00:05:38;;;;;;;4.22;0.93;;;16.30;99.90;;;;;;4855627;29;20058;-81
2021/07/06 00:08:06;;;;;;;1.90;1.25;;;16.40;99.90;;;;;;4855203;29;20655;-81
2021/07/06 00:10:35;;;;;;;4.53;1.05;;;16.40;99.90;;;;;;4823610;29;20060;-81
2021/07/06 00:13:04;;;;;;;9.20;1.92;;;16.40;99.90;;;;;;4853826;29;20080;-80
2021/07/06 00:15:34;;;;;;;7.90;1.52;;;16.40;99.90;;;;;;4871157;29;20056;-80
2021/07/06 00:18:03;;;;;;;5.03;1.73;;;16.40;99.90;;;;;;4853543;29;20076;-81
2021/07/06 00:20:32;;;;;;;3.28;1.85;;;16.40;99.90;;;;;;4851629;29;20456;-81
2021/07/06 00:23:04;;;;;;;5.10;1.58;;;16.40;99.90;;;;;;4851815;29;20069;-81
2021/07/06 00:25:32;;;;;;;6.47;1.60;;;16.40;99.90;;;;;;4851869;29;20527;-80
2021/07/06 00:28:00;;;;;;;13.77;2.45;;;16.50;99.90;;;;;;4867787;29;20041;-80
2021/07/06 00:30:28;;;;;;;6.53;1.35;;;16.30;99.90;;;;;;4871888;29;20068;-81
2021/07/06 00:32:57;;;;;;;12.85;1.83;;;16.30;99.90;;;;;;4871266;29;20057;-80
2021/07/06 00:35:25;;;;;;;4.32;1.40;;;16.30;99.90;;;;;;4869550;29;20053;-80
2021/07/06 00:37:53;;;;;;;6.55;1.77;;;16.30;99.90;;;;;;4872385;29;20053;-81
2021/07/06 00:40:21;;;;;;;4.15;1.73;;;16.30;99.90;;;;;;4855684;29;20061;-80
2021/07/06 00:42:50;;;;;;;6.38;1.50;;;16.20;99.90;;;;;;4854532;29;20058;-81
2021/07/06 00:45:18;;;;;;;5.68;1.38;;;16.20;99.90;;;;;;4855412;29;20067;-81
2021/07/06 00:47:47;;;;;;;8.48;1.45;;;16.20;99.90;;;;;;4865214;29;20050;-81
2021/07/06 00:50:22;;;;;;;7.43;1.52;;;16.10;99.90;;;;;;4852595;29;20050;-80
2021/07/06 00:52:51;;;;;;;7.00;1.45;;;16.10;99.90;;;;;;4852527;29;20054;-81
2021/07/06 00:55:20;;;;;;;6.65;1.50;;;16.00;99.90;;;;;;4854012;29;20057;-81
2021/07/06 00:57:49;;;;;;;7.50;1.95;;;16.00;99.90;;;;;;4858493;29;20057;-80
2021/07/06 01:00:20;;;;;;;6.82;1.67;;;16.00;99.90;;;;;;4855657;29;20065;-80
2021/07/06 01:02:50;;;;;;;10.05;4.13;;;16.00;99.90;;;;;;4853672;29;20057;-81
2021/07/06 01:05:21;;;;;;;8.98;4.22;;;15.90;99.90;;;;;;4862424;29;20069;-80
2021/07/06 01:07:49;;;;;;;7.50;2.72;;;15.90;99.90;;;;;;4874444;29;20057;-81
2021/07/06 01:10:20;;;;;;;10.93;2.95;;;16.00;99.90;;;;;;4843770;29;20053;-81
2021/07/06 01:12:49;;;;;;;14.07;2.90;;;15.90;99.90;;;;;;4874293;29;20534;-80
2021/07/06 01:15:19;;;;;;;12.38;2.13;;;15.80;99.90;;;;;;4874309;29;20053;-80
2021/07/06 01:18:17;;;;;;;9.45;2.17;;;15.80;99.90;;;;;;4873262;29;20067;-81
2021/07/06 01:20:50;;;;;;;5.47;1.95;;;15.80;99.90;;;;;;4875051;29;20053;-81
2021/07/06 01:23:21;;;;;;;18.65;2.95;;;15.70;99.90;;;;;;4873894;29;20057;-80
2021/07/06 01:25:58;;;;;;;10.20;2.35;;;15.70;99.90;;;;;;4872949;29;20079;-80
2021/07/06 01:28:27;;;;;;;8.50;2.40;;;15.60;99.90;;;;;;4874488;29;20060;-80
2021/07/06 01:30:55;;;;;;;12.25;2.55;;;15.60;99.90;;;;;;4843558;29;20073;-81
2021/07/06 01:33:25;;;;;;;9.32;3.17;;;15.60;99.90;;;;;;4865332;29;20050;-80
2021/07/06 01:36:01;;;;;;;8.93;2.53;;;15.60;99.90;;;;;;4858294;29;20052;-79
2021/07/06 01:38:31;;;;;;;11.98;2.38;;;15.50;99.90;;;;;;4874839;29;20700;-80
2021/07/06 01:41:00;;;;;;;11.75;3.00;;;15.50;99.90;;;;;;4869753;29;20061;-81
2021/07/06 01:43:29;;;;;;;10.50;1.92;;;15.50;99.90;;;;;;4873060;29;20050;-80
2021/07/06 01:45:58;;;;;;;16.10;3.38;;;15.50;99.90;;;;;;4875066;29;20392;-80
2021/07/06 01:48:26;;;;;;;23.50;2.95;;;15.40;99.90;;;;;;4859094;29;20678;-80
2021/07/06 01:50:55;;;;;;;17.38;4.38;;;15.40;99.90;;;;;;4856748;29;20054;-81
2021/07/06 01:53:23;;;;;;;18.80;4.68;;;15.40;99.90;;;;;;4857114;29;20061;-81
2021/07/06 01:55:53;;;;;;;11.30;4.45;;;15.40;99.90;;;;;;4865878;29;20041;-81
2021/07/06 01:58:23;;;;;;;26.47;4.17;;;15.40;99.90;;;;;;4869272;29;20046;-80
2021/07/06 02:00:55;;;;;;;7.43;3.25;;;15.40;99.90;;;;;;4840557;29;20065;-81
2021/07/06 02:03:23;;;;;;;19.77;3.47;;;15.40;99.90;;;;;;4841829;29;20058;-80
2021/07/06 02:05:57;;;;;;;22.63;3.50;;;15.40;99.90;;;;;;4863018;29;20059;-81
2021/07/06 02:08:25;;;;;;;9.85;3.25;;;15.30;99.90;;;;;;4875287;29;20061;-80
2021/07/06 02:10:58;;;;;;;15.18;3.80;;;15.40;99.90;;;;;;4875629;29;20057;-81
2021/07/06 02:13:28;;;;;;;19.70;3.53;;;15.40;99.90;;;;;;4868523;29;20053;-81
2021/07/06 02:15:57;;;;;;;23.63;5.28;;;15.30;99.90;;;;;;4857528;29;20046;-80
2021/07/06 02:18:30;;;;;;;15.15;4.30;;;15.30;99.90;;;;;;4871165;29;20045;-80
2021/07/06 02:20:59;;;;;;;23.90;4.47;;;15.20;99.90;;;;;;4871875;29;20053;-81
2021/07/06 02:23:29;;;;;;;21.90;3.88;;;15.20;99.90;;;;;;4856426;29;20061;-81
2021/07/06 02:26:02;;;;;;;24.48;4.13;;;15.20;99.90;;;;;;4858344;29;20058;-81
2021/07/06 02:28:31;;;;;;;12.57;3.22;;;15.20;99.90;;;;;;4857755;29;20057;-80
2021/07/06 02:31:01;;;;;;;14.18;2.95;;;15.20;99.90;;;;;;4876075;29;20053;-81
2021/07/06 02:33:34;;;;;;;11.50;2.97;;;15.20;99.90;;;;;;4876416;29;20056;-81
2021/07/06 02:36:06;;;;;;;15.10;2.97;;;15.20;99.90;;;;;;4870919;29;20069;-80
2021/07/06 02:38:37;;;;;;;9.33;3.43;;;15.30;99.90;;;;;;4855304;29;20061;-81
2021/07/06 02:41:08;;;;;;;16.92;7.57;;;15.30;99.90;;;;;;4857387;29;20050;-80
2021/07/06 02:43:36;;;;;;;18.60;4.28;;;15.30;99.90;;;;;;4873777;29;20053;-80
2021/07/06 02:46:07;;;;;;;7.53;2.63;;;15.30;99.90;;;;;;4859714;29;20067;-81
2021/07/06 02:48:38;;;;;;;20.98;4.47;;;15.30;99.90;;;;;;4872984;29;20060;-81
2021/07/06 02:51:09;;;;;;;16.42;4.47;;;15.30;99.90;;;;;;4854704;29;20362;-81
2021/07/06 02:53:36;;;;;;;12.80;3.78;;;15.30;99.90;;;;;;4856418;29;20057;-81
2021/07/06 02:56:07;;;;;;;13.30;3.15;;;15.30;99.90;;;;;;4856962;29;20049;-80
2021/07/06 02:58:38;;;;;;;10.02;3.20;;;15.30;99.90;;;;;;4871282;29;20042;-81
2021/07/06 03:01:06;;;;;;;13.27;4.65;;;15.30;99.90;;;;;;4874005;29;20064;-80
2021/07/06 03:03:35;;;;;;;20.48;4.95;;;15.30;99.90;;;;;;4873317;29;20058;-81
2021/07/06 03:06:03;;;;;;;13.85;2.97;;;15.30;99.90;;;;;;4873762;29;20053;-80
2021/07/06 03:08:31;;;;;;;21.13;3.70;;;15.30;99.90;;;;;;4859124;29;20436;-81
2021/07/06 03:10:59;;;;;;;15.48;3.25;;;15.30;99.90;;;;;;4875499;29;20050;-80
2021/07/06 03:13:27;;;;;;;19.25;3.33;;;15.30;99.90;;;;;;4858363;29;20072;-81
2021/07/06 03:15:55;;;;;;;19.73;6.32;;;15.30;99.90;;;;;;4874092;29;20061;-80
2021/07/06 03:18:23;;;;;;;21.02;4.53;;;15.30;99.90;;;;;;4873186;29;20042;-80
2021/07/06 03:20:51;;;;;;;13.57;3.05;;;15.20;99.90;;;;;;4856002;29;20049;-80
2021/07/06 03:23:19;;;;;;;18.77;3.40;;;15.20;99.90;;;;;;4840095;29;20061;-81
2021/07/06 03:25:48;;;;;;;18.70;3.67;;;15.20;99.90;;;;;;4843734;29;20060;-79
2021/07/06 03:28:16;;;;;;;18.63;4.28;;;15.10;99.90;;;;;;4867750;29;20052;-81
2021/07/06 03:30:46;;;;;;;19.92;4.25;;;15.10;99.90;;;;;;4875318;29;20044;-81
2021/07/06 03:33:14;;;;;;;16.85;3.28;;;15.10;99.90;;;;;;4859857;29;20050;-81
2021/07/06 03:35:46;;;;;;;38.83;5.97;;;15.10;99.90;;;;;;4873840;29;20053;-81
2021/07/06 03:38:21;;;;;;;21.73;5.65;;;15.10;99.90;;;;;;4860982;29;20060;-80
2021/07/06 03:40:49;;;;;;;30.58;5.82;;;15.10;99.90;;;;;;4856131;29;20054;-82
2021/07/06 03:43:18;;;;;;;9.02;3.03;;;15.10;99.90;;;;;;4848714;29;20066;-80
2021/07/06 03:45:47;;;;;;;20.58;3.58;;;15.10;99.90;;;;;;4870865;29;20033;-81
2021/07/06 03:48:15;;;;;;;20.88;6.03;;;15.10;99.90;;;;;;4864550;29;20071;-81
2021/07/06 03:50:43;;;;;;;16.20;4.13;;;15.10;99.90;;;;;;4857383;29;20050;-80
2021/07/06 03:53:11;;;;;;;16.60;3.47;;;15.10;99.90;;;;;;4874843;29;20077;-80
2021/07/06 03:55:39;;;;;;;26.88;4.50;;;15.00;99.90;;;;;;4873040;29;20054;-81
2021/07/06 03:58:08;;;;;;;17.63;4.53;;;15.10;99.90;;;;;;4871520;29;20037;-80
2021/07/06 04:00:39;;;;;;;26.30;4.13;;;15.10;99.90;;;;;;4873413;29;20051;-80
2021/07/06 04:03:09;;;;;;;17.30;4.93;;;15.10;99.90;;;;;;4874767;29;20053;-81
2021/07/06 04:05:38;;;;;;;18.73;4.18;;;15.10;99.90;;;;;;4839523;29;20058;-81
2021/07/06 04:08:07;;;;;;;15.35;3.60;;;15.00;99.90;;;;;;4863542;29;20058;-81
2021/07/06 04:10:35;;;;;;;20.35;3.47;;;15.00;99.90;;;;;;4873175;29;20056;-80
2021/07/06 04:13:04;;;;;;;17.17;4.70;;;15.00;99.90;;;;;;4873387;29;20049;-81
2021/07/06 04:15:32;;;;;;;14.80;3.97;;;15.00;99.90;;;;;;4875229;29;20053;-80
2021/07/06 04:18:00;;;;;;;24.10;3.70;;;15.00;99.90;;;;;;4858073;29;20053;-81
2021/07/06 04:20:28;;;;;;;34.25;5.75;;;15.00;99.90;;;;;;4858709;29;20049;-80
2021/07/06 04:22:56;;;;;;;23.50;5.78;;;14.90;99.90;;;;;;4873765;29;20057;-80
2021/07/06 04:25:25;;;;;;;32.40;6.40;;;14.90;99.90;;;;;;4858805;29;20065;-81
2021/07/06 04:27:53;;;;;;;19.83;5.10;;;14.90;99.90;;;;;;4839842;29;20053;-83
2021/07/06 04:30:21;;;;;;;40.92;4.70;;;14.90;99.90;;;;;;4856274;29;20066;-80
2021/07/06 04:32:49;;;;;;;14.43;3.90;;;14.90;99.90;;;;;;4853653;29;20052;-81
2021/07/06 04:35:18;;;;;;;26.58;6.28;;;14.80;99.90;;;;;;4853953;29;20054;-80
2021/07/06 04:37:48;;;;;;;18.65;5.00;;;14.80;99.90;;;;;;4876493;29;20056;-82
2021/07/06 04:40:17;;;;;;;23.45;4.70;;;14.80;99.90;;;;;;4861126;29;20057;-81
2021/07/06 04:42:46;;;;;;;23.90;4.68;;;14.90;99.90;;;;;;4860526;29;20053;-81
2021/07/06 04:45:13;;;;;;;21.73;4.15;;;14.80;99.90;;;;;;4875773;29;20069;-80
2021/07/06 04:47:47;;;;;;;19.83;4.72;;;15.80;99.90;;;;;;4872059;29;20053;-81
2021/07/06 04:50:16;;;;;;;17.70;4.13;;;14.70;99.90;;;;;;4870674;29;20054;-81
2021/07/06 04:52:48;;;;;;;14.00;3.90;;;14.60;99.90;;;;;;4856661;29;20079;-79
2021/07/06 04:55:18;;;;;;;22.77;5.00;;;14.70;99.90;;;;;;4874214;29;20041;-80
2021/07/06 04:57:47;;;;;;;17.27;3.80;;;14.70;99.90;;;;;;4873239;29;20037;-80
2021/07/06 05:00:17;;;;;;;16.30;3.90;;;14.60;99.90;;;;;;4875192;29;20057;-80
2021/07/06 05:02:45;;;;;;;24.40;5.07;;;14.70;99.90;;;;;;4858270;29;20050;-80
2021/07/06 05:05:19;;;;;;;26.90;6.03;;;14.70;99.90;;;;;;4859818;29;20414;-80
2021/07/06 05:07:50;;;;;;;19.52;3.45;;;14.60;99.90;;;;;;4872670;29;20057;-80
2021/07/06 05:10:19;;;;;;;10.30;2.67;;;14.60;99.90;;;;;;4860294;29;20064;-81
2021/07/06 05:12:47;;;;;;;11.48;3.47;;;14.50;99.90;;;;;;4858348;29;20062;-80
2021/07/06 05:15:15;;;;;;;13.45;4.43;;;14.50;99.90;;;;;;4875153;29;20057;-82
2021/07/06 05:17:43;;;;;;;25.15;5.72;;;14.50;99.90;;;;;;4875022;29;20093;-80
2021/07/06 05:20:14;;;;;;;10.05;3.00;;;14.50;99.90;;;;;;4873609;29;20610;-81
2021/07/06 05:22:44;;;;;;;20.80;3.58;;;14.60;99.90;;;;;;4843550;29;20053;-81
2021/07/06 05:25:12;;;;;;;14.80;3.15;;;14.60;99.90;;;;;;4873340;29;20045;-81
2021/07/06 05:27:43;;;;;;;14.90;4.82;;;14.70;99.90;;;;;;4874643;29;20064;-81
2021/07/06 05:30:12;;;;;;;14.05;4.20;;;14.60;99.90;;;;;;4873575;29;20404;-81
2021/07/06 05:32:40;;;;;;;8.48;2.72;;;14.60;99.90;;;;;;4873744;29;20053;-81
2021/07/06 05:35:11;;;;;;;13.80;3.23;;;14.60;99.90;;;;;;4875959;29;20060;-80
2021/07/06 05:37:42;;;;;;;20.95;3.58;;;14.60;99.90;;;;;;4859633;29;20070;-80
2021/07/06 05:40:12;;;;;;;7.35;2.95;;;14.60;99.90;;;;;;4851663;29;20054;-80
2021/07/06 05:42:41;;;;;;;5.90;2.53;;;14.60;99.90;;;;;;4872114;29;20046;-80
2021/07/06 05:45:12;;;;;;;12.30;2.05;;;14.60;99.90;;;;;;4873608;29;20076;-81
2021/07/06 05:47:43;;;;;;;9.82;2.45;;;14.60;99.90;;;;;;4872571;29;20041;-81
2021/07/06 05:50:15;;;;;;;4.55;1.80;;;14.60;99.90;;;;;;4875051;29;20053;-80
2021/07/06 05:52:44;;;;;;;6.55;2.17;;;14.60;99.90;;;;;;4873126;29;20052;-80
2021/07/06 05:55:14;;;;;;;16.95;3.05;;;14.50;99.90;;;;;;4875325;29;20068;-81
2021/07/06 05:57:43;;;;;;;11.57;4.07;;;14.50;99.90;;;;;;4845086;29;20061;-81
2021/07/06 06:00:14;;;;;;;9.88;2.72;;;14.50;99.90;;;;;;4873894;29;20060;-80
2021/07/06 06:02:48;;;;;;;17.40;3.17;;;14.60;99.90;;;;;;4870735;29;20055;-80
2021/07/06 06:05:16;;;;;;;13.88;2.75;;;14.60;99.90;;;;;;4849550;29;20065;-80
2021/07/06 06:07:44;;;;;;;14.75;3.30;;;14.60;99.90;;;;;;4861270;29;20050;-78
2021/07/06 06:10:13;;;;;;;10.13;3.95;;;14.60;99.90;;;;;;4873614;29;20053;-80
2021/07/06 06:12:44;;;;;;;15.00;2.90;;;14.70;99.90;;;;;;4872521;29;20059;-80
2021/07/06 06:15:12;;;;;;;16.70;5.13;;;15.00;99.90;;;;;;4868615;29;20057;-80
2021/07/06 06:17:42;;;;;;;9.65;3.67;;;14.70;99.90;;;;;;4872317;29;20048;-80
2021/07/06 06:20:13;;;;;;;15.77;3.67;;;14.90;99.90;;;;;;4856448;29;20059;-81
2021/07/06 06:22:44;;;;;;;14.68;3.88;;;14.90;99.90;;;;;;4863100;29;20396;-81
2021/07/06 06:25:13;;;;;;;18.45;5.43;;;14.90;99.90;;;;;;4856399;29;20061;-81
2021/07/06 06:27:41;;;;;;;15.32;3.20;;;14.90;99.90;;;;;;4872309;29;20051;-80
2021/07/06 06:30:10;;;;;;;19.30;5.55;;;15.00;99.90;;;;;;4886166;29;20644;-81
2021/07/06 06:32:38;;;;;;;14.00;3.33;;;15.00;99.90;;;;;;4873454;29;20052;-81
2021/07/06 06:35:08;;;;;;;17.50;4.10;;;15.10;99.90;;;;;;4857852;29;20038;-81
2021/07/06 06:37:39;;;;;;;14.52;3.30;;;15.20;99.90;;;;;;4874046;29;20056;-81
2021/07/06 06:40:10;;;;;;;15.05;5.25;;;15.50;99.90;;;;;;4871624;29;20065;-82
2021/07/06 06:42:42;;;;;;;6.00;2.42;;;15.40;99.90;;;;;;4875964;29;20045;-81
2021/07/06 06:45:13;;;;;;;10.00;3.95;;;15.40;99.90;;;;;;4883847;29;20049;-81
2021/07/06 06:47:42;;;;;;;8.90;2.43;;;15.40;99.90;;;;;;4872246;29;20041;-84
2021/07/06 06:50:14;;;;;;;9.77;2.33;;;15.40;99.90;;;;;;4863068;29;20295;-80
2021/07/06 06:52:43;;;;;;;6.55;2.22;;;15.30;99.90;;;;;;4857462;29;20549;-80
2021/07/06 06:55:14;;;;;;;;;;;15.40;99.90;;;;;;4872489;29;20053;-81
2021/07/06 06:57:42;;;;;;;9.55;2.22;;;15.40;99.90;;;;;;4873438;29;19924;-81
2021/07/06 07:00:13;;;;;;;8.43;2.22;;;15.40;99.90;;;;;;4854939;29;20050;-82
2021/07/06 07:02:43;;;;;;;8.20;2.80;;;15.50;99.90;;;;;;4865917;29;20070;-84
2021/07/06 07:05:12;;;;;;;10.88;2.22;;;15.60;99.90;;;;;;4857559;29;20189;-84
2021/07/06 07:07:41;;;;;;;8.00;2.35;;;15.60;99.90;;;;;;4871701;29;20048;-82
2021/07/06 07:10:11;;;;;;;7.70;2.05;;;15.70;99.90;;;;;;4857503;29;20057;-83
2021/07/06 07:12:42;;;;;;;15.88;2.42;;;15.80;99.90;;;;;;4872337;29;20045;-84
2021/07/06 07:15:12;;;;;;;7.65;2.03;;;15.80;99.90;;;;;;4856900;29;20045;-82
2021/07/06 07:17:40;;;;;;;8.65;1.60;;;15.80;99.90;;;;;;4855286;29;20057;-85
2021/07/06 07:20:12;;;;;;;3.75;1.48;;;16.00;99.90;;;;;;4875534;29;20049;-82
2021/07/06 07:22:42;;;;;;;8.43;1.52;;;16.00;99.90;;;;;;4858611;29;20053;-84
2021/07/06 07:25:12;;;;;;;7.50;2.42;;;16.10;99.90;;;;;;4873036;29;20049;-81
2021/07/06 07:27:41;;;;;;;6.88;1.80;;;16.10;99.90;;;;;;4875549;29;20061;-83
2021/07/06 07:30:16;;;;;;;6.90;2.25;;;16.20;99.90;;;;;;4859625;29;20351;-83
2021/07/06 07:32:45;;;;;;;7.72;1.70;;;16.20;99.90;;;;;;4858174;29;20062;-82
2021/07/06 07:35:14;;;;;;;5.32;1.80;;;16.30;99.90;;;;;;4854337;29;20053;-81
2021/07/06 07:37:44;;;;;;;5.03;1.88;;;16.30;99.90;;;;;;4872159;29;20046;-83
2021/07/06 07:40:16;;;;;;;10.35;1.83;;;16.40;99.90;;;;;;4867552;29;20054;-83
2021/07/06 07:42:50;;;;;;;7.10;1.25;;;16.40;99.90;;;;;;4868800;29;20057;-82
2021/07/06 07:45:19;;;;;;;7.95;1.15;;;16.50;99.90;;;;;;4863545;29;20057;-81
2021/07/06 07:47:47;;;;;;;1.75;1.27;;;16.60;99.90;;;;;;4869271;29;20072;-82
2021/07/06 07:50:16;;;;;;;6.18;1.38;;;16.70;99.90;;;;;;4871661;29;20065;-85
2021/07/06 07:52:44;;;;;;;4.18;1.30;;;16.80;99.90;;;;;;4871837;29;20431;-81
2021/07/06 07:55:14;;;;;;;8.32;1.83;;;16.90;99.90;;;;;;4871577;29;20052;-83
2021/07/06 07:57:42;;;;;;;2.80;1.33;;;17.10;99.90;;;;;;4870864;29;20054;-80
2021/07/06 08:00:12;;;;;;;2.13;1.55;;;17.20;99.90;;;;;;4854912;29;20057;-83
2021/07/06 08:02:44;;;;;;;10.45;1.77;;;17.30;99.90;;;;;;4855817;29;20045;-81
2021/07/06 08:05:15;;;;;;;8.18;1.58;;;17.20;99.90;;;;;;4870240;29;20073;-82
2021/07/06 08:07:44;;;;;;;8.43;3.28;;;17.20;99.90;;;;;;4872584;29;20057;-82
2021/07/06 08:10:12;;;;;;;3.80;1.95;;;16.90;99.90;;;;;;4854471;29;20054;-85
2021/07/06 08:12:40;;;;;;;5.70;1.98;;;17.20;99.90;;;;;;4871112;29;20072;-84
2021/07/06 08:15:12;;;;;;;5.75;1.58;;;17.20;99.90;;;;;;4860046;29;20054;-85
2021/07/06 08:17:41;;;;;;;10.98;1.58;;;17.20;99.90;;;;;;4869349;29;20064;-84
2021/07/06 08:20:13;;;;;;;4.47;1.50;;;17.10;99.90;;;;;;4846220;29;20087;-84
2021/07/06 08:22:44;;;;;;;5.80;1.50;;;17.10;99.90;;;;;;4872980;29;20057;-84
2021/07/06 08:25:13;;;;;;;7.85;2.13;;;17.10;99.90;;;;;;4869304;29;20070;-82
2021/07/06 08:27:40;;;;;;;6.68;2.47;;;17.10;99.90;;;;;;4870877;29;20053;-83
2021/07/06 08:30:09;;;;;;;12.25;2.92;;;17.10;99.90;;;;;;4870134;29;20056;-84
2021/07/06 08:32:37;;;;;;;10.57;1.88;;;17.10;99.90;;;;;;4855792;29;20487;-85
2021/07/06 08:35:06;;;;;;;8.77;1.40;;;17.10;99.90;;;;;;4869109;29;20064;-84
2021/07/06 08:37:34;;;;;;;9.07;1.83;;;17.00;99.90;;;;;;4865437;29;20488;-83
2021/07/06 08:40:04;;;;;;;7.45;2.13;;;16.90;99.90;;;;;;4870151;29;20068;-84
2021/07/06 08:42:35;;;;;;;6.00;3.20;;;16.80;99.90;;;;;;4855702;29;20053;-83
2021/07/06 08:45:05;;;;;;;6.38;1.92;;;16.40;99.90;;;;;;4868516;29;20064;-84
2021/07/06 08:47:35;;;;;;;4.13;2.00;;;16.80;99.90;;;;;;4869536;29;20054;-85
2021/07/06 08:50:07;;;;;;;6.63;1.75;;;16.80;99.90;;;;;;4870040;29;20084;-84
2021/07/06 08:52:40;;;;;;;8.30;1.70;;;16.80;99.90;;;;;;4856685;29;20053;-82
2021/07/06 08:55:12;;;;;;;6.63;1.33;;;16.70;99.90;;;;;;4871889;29;20055;-82
2021/07/06 08:57:42;;;;;;;3.22;1.40;;;16.70;99.90;;;;;;4869280;29;20053;-82
2021/07/06 09:00:13;;;;;;;3.33;1.48;;;16.60;99.90;;;;;;4870804;29;20071;-83
2021/07/06 09:02:53;;;;;;;5.82;1.35;;;16.40;99.90;;;;;;4866816;29;20057;-82
2021/07/06 09:05:21;;;;;;;3.30;1.42;;;16.40;99.90;;;;;;4837202;29;20058;-82
2021/07/06 09:07:50;;;;;;;8.80;2.50;;;16.40;99.90;;;;;;4869842;29;20045;-82
2021/07/06 09:10:23;;;;;;;5.38;1.13;;;16.50;99.90;;;;;;4868718;29;20135;-84
2021/07/06 09:12:52;;;;;;;4.13;1.85;;;16.60;99.90;;;;;;4869034;29;20049;-82
2021/07/06 09:15:33;;;;;;;2.15;1.02;;;16.80;99.90;;;;;;4852994;29;20060;-82
2021/07/06 09:18:07;;;;;;;3.35;0.93;;;16.90;99.90;;;;;;4866425;29;20065;-84
2021/07/06 09:20:38;;;;;;;4.22;1.00;;;17.10;99.90;;;;;;4870174;29;20058;-85
2021/07/06 09:23:27;;;;;;;5.13;1.00;;;17.30;99.90;;;;;;4872606;29;20054;-85
2021/07/06 09:26:18;;;;;;;2.83;1.27;;;17.30;99.90;;;;;;4874786;29;20623;-82
2021/07/06 09:28:50;;;;;;;;;;;17.30;99.90;;;;;;4874460;29;20061;-85
2021/07/06 09:31:26;;;;;;;2.40;1.48;;;17.30;99.90;;;;;;4873396;29;19924;-83
2021/07/06 09:34:04;;;;;;;11.80;1.33;;;17.40;99.90;;;;;;4858603;29;20049;-84
2021/07/06 09:36:45;;;;;;;6.97;2.28;;;17.40;99.90;;;;;;4873976;29;20064;-83
2021/07/06 09:39:17;;;;;;;;;;;17.50;99.90;;;;;;4872476;29;20045;-82
2021/07/06 09:42:03;;;;;;;4.35;1.25;;;17.70;99.90;;;;;;4874441;29;20054;-83
2021/07/06 09:44:38;;;;;;;2.33;1.02;;;17.80;99.90;;;;;;4869058;29;20789;-84
2021/07/06 09:47:09;;;;;;;5.93;1.30;;;17.90;99.90;;;;;;4838897;29;20045;-85
2021/07/06 09:49:55;;;;;;;5.10;1.58;;;17.90;99.90;;;;;;4873258;29;20058;-84
2021/07/06 09:52:34;;;;;;;6.80;1.10;;;17.20;99.90;;;;;;4872789;29;20061;-85
2021/07/06 09:55:13;;;;;;;5.07;1.70;;;17.80;99.90;;;;;;4874301;29;20068;-84
2021/07/06 09:57:42;;;;;;;4.55;1.60;;;17.80;99.90;;;;;;4876658;29;20053;-85
2021/07/06 10:00:19;;;;;;;9.50;2.35;;;17.80;99.90;;;;;;4844306;29;20045;-82
2021/07/06 10:02:47;;;;;;;4.18;1.52;;;17.80;99.90;;;;;;4856281;29;20045;-84
2021/07/06 10:05:22;;;;;;;5.10;1.48;;;17.80;99.90;;;;;;4871062;29;20056;-82
2021/07/06 10:07:51;;;;;;;3.35;1.50;;;17.90;99.90;;;;;;4868865;29;20059;-82
2021/07/06 10:10:20;;;;;;;10.48;1.83;;;18.00;99.90;;;;;;4872243;29;20045;-84
2021/07/06 10:12:49;;;;;;;7.32;2.00;;;18.10;99.90;;;;;;4871495;29;20049;-83
2021/07/06 10:15:21;;;;;;;10.40;1.80;;;18.20;99.90;;;;;;4854361;29;20049;-81
2021/07/06 10:17:52;;;;;;;12.10;2.20;;;18.30;99.90;;;;;;4855625;29;20057;-84
2021/07/06 10:20:26;;;;;;;4.10;1.90;;;18.50;99.90;;;;;;4870124;29;20064;-83
2021/07/06 10:22:59;;;;;;;9.93;2.13;;;18.70;99.90;;;;;;4870984;29;20060;-83
2021/07/06 10:25:32;;;;;;;6.10;1.90;;;18.70;99.90;;;;;;4870535;29;20050;-83
2021/07/06 10:28:07;;;;;;;9.23;1.90;;;18.80;99.90;;;;;;4872020;29;20045;-82
2021/07/06 10:30:44;;;;;;;6.25;1.52;;;18.70;99.90;;;;;;4872515;29;20049;-82
2021/07/06 10:33:29;;;;;;;5.30;1.75;;;18.70;99.90;;;;;;4852789;29;20628;-81
2021/07/06 10:36:03;;;;;;;5.68;2.03;;;18.60;99.90;;;;;;4859799;29;20056;-82
2021/07/06 10:38:31;;;;;;;5.43;2.22;;;18.50;99.90;;;;;;4855692;29;20073;-84
2021/07/06 10:41:14;;;;;;;7.90;2.72;;;18.40;99.90;;;;;;4854466;29;20092;-84
2021/07/06 10:43:45;;;;;;;11.00;1.90;;;18.20;99.90;;;;;;4859251;29;20060;-82
2021/07/06 10:46:19;;;;;;;5.20;2.17;;;18.00;99.90;;;;;;4853038;29;20046;-83
2021/07/06 10:49:13;;;;;;;14.20;3.33;;;17.80;99.90;;;;;;4866331;29;20053;-82
2021/07/06 10:51:41;;;;;;;16.42;3.50;;;17.60;99.90;;;;;;4868453;29;20060;-83
2021/07/06 10:54:16;;;;;;;13.55;2.33;;;17.50;99.90;;;;;;4872958;29;20051;-84
2021/07/06 10:56:45;;;;;;;11.65;3.08;;;17.60;99.90;;;;;;4870050;29;20060;-82
2021/07/06 10:59:22;;;;;;;6.00;2.25;;;17.60;99.90;;;;;;4856449;29;20037;-83
2021/07/06 11:01:57;;;;;;;12.60;4.85;;;17.80;99.90;;;;;;4870254;29;20050;-81
2021/07/06 11:04:43;;;;;;;18.45;3.15;;;18.00;99.90;;;;;;4855440;29;20050;-81
2021/07/06 11:07:14;;;;;;;7.28;2.05;;;18.20;99.90;;;;;;4869664;29;20073;-82
2021/07/06 11:09:42;;;;;;;;;;;18.20;99.90;;;;;;4871576;29;20057;-85
2021/07/06 11:12:24;;;;;;;6.03;1.38;;;18.20;99.90;;;;;;4869467;29;19924;-85
2021/07/06 11:14:53;;;;;;;7.47;2.13;;;18.10;99.90;;;;;;4876986;29;20052;-83
2021/07/06 11:17:41;;;;;;;8.07;2.35;;;18.00;99.90;;;;;;4871460;29;20041;-81
2021/07/06 11:20:30;;;;;;;7.20;1.63;;;17.90;99.90;;;;;;4872749;29;20045;-82
2021/07/06 11:23:11;;;;;;;7.43;1.98;;;18.00;99.90;;;;;;4870223;29;20057;-83
2021/07/06 11:25:46;;;;;;;6.72;2.03;;;17.60;99.90;;;;;;4871517;29;20840;-80
2021/07/06 11:28:18;;;;;;;20.38;3.13;;;18.30;99.90;;;;;;4858267;29;20060;-82
2021/07/06 11:30:54;;;;;;;4.82;2.08;;;18.40;99.90;;;;;;4874551;29;20050;-82
2021/07/06 11:33:25;;;;;;;5.28;2.17;;;18.50;99.90;;;;;;4871008;29;20062;-81
2021/07/06 11:36:00;;;;;;;9.90;2.50;;;18.50;99.90;;;;;;4871240;29;20144;-81
2021/07/06 11:38:29;;;;;;;6.55;2.08;;;18.50;99.90;;;;;;4870345;29;20057;-82
2021/07/06 11:41:00;;;;;;;7.85;1.60;;;18.30;99.90;;;;;;4869340;29;20056;-82
2021/07/06 11:43:30;;;;;;;4.53;1.48;;;18.20;99.90;;;;;;4866272;29;20057;-81
2021/07/06 11:46:03;;;;;;;4.47;1.38;;;18.20;99.90;;;;;;4868775;29;20064;-84
2021/07/06 11:48:36;;;;;;;7.85;1.58;;;18.40;99.90;;;;;;4870899;29;20049;-81
2021/07/06 11:51:08;;;;;;;5.13;1.50;;;18.60;99.90;;;;;;4865525;29;20045;-81
2021/07/06 11:53:39;;;;;;;3.03;1.13;;;18.80;99.90;;;;;;4869804;29;20053;-82
2021/07/06 11:56:11;;;;;;;5.75;1.63;;;19.00;99.90;;;;;;4851875;29;20045;-83
2021/07/06 11:58:40;;;;;;;2.70;1.30;;;18.90;99.90;;;;;;4839381;29;20061;-82
2021/07/06 12:01:13;;;;;;;5.22;1.60;;;18.70;99.90;;;;;;4868649;29;20054;-81
2021/07/06 12:03:41;;;;;;;7.65;1.50;;;18.60;99.90;;;;;;4865896;29;20052;-83
2021/07/06 12:06:21;;;;;;;5.55;1.40;;;18.40;99.90;;;;;;4878811;29;20064;-82
2021/07/06 12:08:51;;;;;;;1.73;1.00;;;18.20;99.90;;;;;;4871064;29;20049;-83
2021/07/06 12:11:22;;;;;;;4.85;1.40;;;18.00;99.90;;;;;;4869273;29;20068;-82
2021/07/06 12:13:53;;;;;;;2.60;0.90;;;17.80;99.90;;;;;;4863244;29;20053;-82
2021/07/06 12:16:23;;;;;;;2.85;1.05;;;17.60;99.90;;;;;;4851616;29;20049;-81
2021/07/06 12:18:53;;;;;;;5.05;1.30;;;17.50;99.90;;;;;;4868981;29;20068;-80
2021/07/06 12:21:25;;;;;;;1.85;1.00;;;17.50;99.90;;;;;;4867721;29;20049;-82
2021/07/06 12:24:03;;;;;;;5.75;1.52;;;17.50;99.90;;;;;;4868732;29;20073;-81
2021/07/06 12:26:43;;;;;;;4.82;1.17;;;17.60;99.90;;;;;;4869333;29;20064;-82
2021/07/06 12:29:26;;;;;;;4.55;0.90;;;17.90;99.90;;;;;;4870352;29;20050;-83
2021/07/06 12:31:55;;;;;;;3.28;2.30;;;18.20;99.90;;;;;;4841113;29;21002;-83
2021/07/06 12:34:50;;;;;;;3.80;1.02;;;18.50;99.90;;;;;;4870153;29;20120;-83
2021/07/06 12:37:21;;;;;;;1.95;1.35;;;18.80;99.90;;;;;;4857961;29;20050;-82
2021/07/06 12:39:52;;;;;;;2.35;1.00;;;19.20;99.90;;;;;;4853122;29;20069;-82
2021/07/06 12:42:22;;;;;;;5.85;1.30;;;19.30;99.90;;;;;;4848246;29;20081;-83
2021/07/06 12:44:51;;;;;;;3.60;1.30;;;19.40;99.90;;;;;;4852930;29;20057;-82
2021/07/06 12:47:41;;;;;;;3.58;1.05;;;19.40;99.90;;;;;;4870469;29;20037;-82
2021/07/06 12:50:17;;;;;;;1.75;0.82;;;19.40;99.90;;;;;;4851233;29;20060;-82
2021/07/06 12:52:57;;;;;;;5.40;1.13;;;19.30;99.90;;;;;;4866159;29;20046;-81
2021/07/06 12:55:27;;;;;;;4.35;2.30;;;18.90;99.90;;;;;;4869697;29;20048;-82
2021/07/06 12:58:02;;;;;;;2.90;1.35;;;18.70;99.90;;;;;;4870186;29;20058;-81
2021/07/06 13:00:34;;;;;;;4.80;1.42;;;18.50;99.90;;;;;;4873824;29;20081;-81
2021/07/06 13:03:12;;;;;;;1.63;1.20;;;18.30;99.90;;;;;;4858227;29;20052;-83